Carbondale, Illinois
Current Conditions -  °F | °C
As of 8:52 PM on Saturday 25 Oct 2014 (Local Time) from KMDH Reporting Station
Clear Clear  
Wind Chill: 57°   Ceiling: Unl
Heat Index: 57°   Visibility: 10mi
Dew Point: 53°   Wind: 0mph
Humidity: 87%   Direction: NA
Pressure: 30.02"   Gusts: NA
Location:  37.73°N, 89.21°W
Report Text: KMDH 260152Z AUTO 00000KT 10SM CLR 14/12 A3002 RMK AO2 SLP163 T01390117
Loading
Personal Weather Stations






























Interactive Weather Map
Tropical Storm Tracking
New forecast layout! Learn more

10-Day Weather Forecast

Advertisements
Track Severe Weather on mobile